Granite Canon, Wyoming
Current Conditions -  °F | °C
As of 2:56 PM on Saturday 25 Oct 2014 (Local Time) from KFEW Reporting Station
Clear Clear  
Wind Chill: 74°   Ceiling: Unl
Heat Index: 74°   Visibility: 10mi
Dew Point: 19°   Wind: 15mph
Humidity: 13%   Direction: 200°SSW
Pressure: 30.11"   Gusts: 22mph
Location:  41.1°N, 105.14°W
Report Text: KFEW 252056Z AUTO 20013G19KT 10SM CLR 23/M07 A3011 RMK AO2 SLP137 T02311074 57021 $
Loading
Personal Weather Stations






























Interactive Weather Map
Tropical Storm Tracking
New forecast layout! Learn more

10-Day Weather Forecast

Advertisements
Track Severe Weather on mobile